Time;durP1;ratioP1;P1;durP2;ratioP2;P2;SDS_P1;SDS_P2;PMS_P1;PMS_P2;Temp;Humidity;BMP_temperature;BMP_pressure;BME280_temperature;BME280_humidity;BME280_pressure;Samples;Min_cycle;Max_cycle;Signal;HPM_P1;HPM_P2
2022/11/01 00:01:24;;;;;;;;;1.00;1.00;;;;;17.18;64.21;100857.13;4974743;28;45385;-76
2022/11/01 00:03:50;;;;;;;;;0.25;0.25;;;;;17.13;63.92;100867.88;4976547;28;45578;-75
2022/11/01 00:06:15;;;;;;;;;3.50;0.25;;;;;17.05;63.95;100850.81;4973975;28;70448;-75
2022/11/01 00:08:40;;;;;;;;;0.00;0.00;;;;;16.99;63.65;100854.63;4975131;28;75753;-75
2022/11/01 00:11:08;;;;;;;;;0.00;0.00;;;;;16.93;63.47;100876.00;4975196;28;72984;-76
2022/11/01 00:13:34;;;;;;;;;1.00;0.00;;;;;16.88;63.06;100878.00;4975110;28;45485;-75
2022/11/01 00:15:59;;;;;;;;;0.00;0.00;;;;;16.85;63.73;100889.53;4974730;28;45437;-75
2022/11/01 00:18:25;;;;;;;;;2.00;0.00;;;;;16.80;63.03;100883.63;4965327;28;45564;-76
2022/11/01 00:20:50;;;;;;;;;0.00;0.00;;;;;16.73;62.65;100901.50;4974775;28;45412;-76
2022/11/01 00:23:15;;;;;;;;;0.00;0.00;;;;;16.69;63.42;100899.13;4976273;28;45423;-75
2022/11/01 00:25:41;;;;;;;;;0.00;0.00;;;;;16.62;63.44;100902.09;4957708;28;63341;-75
2022/11/01 00:28:06;;;;;;;;;0.00;0.00;;;;;16.59;63.41;100904.00;4975135;28;71757;-76
2022/11/01 00:30:31;;;;;;;;;1.00;0.75;;;;;16.58;64.00;100910.19;4957779;28;57119;-75
2022/11/01 00:32:57;;;;;;;;;0.25;0.25;;;;;16.55;63.75;100913.84;4957823;28;60638;-75
2022/11/01 00:35:23;;;;;;;;;0.00;0.00;;;;;16.57;64.07;100919.00;4975015;28;61746;-75
2022/11/01 00:37:48;;;;;;;;;0.00;0.00;;;;;16.54;63.53;100922.63;4975746;28;46071;-75
2022/11/01 00:40:13;;;;;;;;;0.00;0.00;;;;;16.55;63.36;100919.09;4974780;28;70298;-75
2022/11/01 00:42:39;;;;;;;;;1.00;0.00;;;;;16.56;63.25;100931.28;4975908;28;45249;-76
2022/11/01 00:45:04;;;;;;;;;1.00;0.00;;;;;16.54;62.80;100950.69;4974720;28;63537;-75
2022/11/01 00:47:30;;;;;;;;;1.25;0.00;;;;;16.51;63.23;100962.22;4975691;28;47011;-75
2022/11/01 00:49:55;;;;;;;;;1.50;0.00;;;;;16.47;61.40;100944.03;4975076;28;65007;-76
2022/11/01 00:52:20;;;;;;;;;1.50;0.00;;;;;16.44;61.51;100950.31;4975106;28;61740;-75
2022/11/01 00:54:46;;;;;;;;;1.25;0.00;;;;;16.44;60.81;100964.28;4974899;28;65885;-75
2022/11/01 00:57:11;;;;;;;;;3.00;0.00;;;;;16.39;61.06;100973.31;4974986;28;65468;-75
2022/11/01 00:59:36;;;;;;;;;0.00;0.00;;;;;16.37;60.55;100972.56;4975290;28;45355;-75
2022/11/01 01:02:02;;;;;;;;;0.50;0.00;;;;;16.34;59.42;100963.03;4975159;28;45487;-75
2022/11/01 01:04:27;;;;;;;;;0.00;0.00;;;;;16.27;57.89;100966.91;4976868;28;67016;-76
2022/11/01 01:06:53;;;;;;;;;0.00;0.00;;;;;16.28;58.66;100986.13;4978843;28;45392;-75
2022/11/01 01:09:19;;;;;;;;;0.00;0.00;;;;;16.21;59.37;100983.81;4978883;28;45713;-75
2022/11/01 01:11:44;;;;;;;;;1.25;0.00;;;;;16.23;60.45;100991.59;4978075;28;64606;-75
2022/11/01 01:14:10;;;;;;;;;0.00;0.00;;;;;16.19;61.38;100995.31;4977878;28;63889;-75
2022/11/01 01:16:35;;;;;;;;;0.75;0.00;;;;;16.10;61.64;100993.97;4977322;28;47387;-75
2022/11/01 01:19:01;;;;;;;;;0.75;0.00;;;;;16.04;61.04;100995.13;4977734;28;67286;-75
2022/11/01 01:21:26;;;;;;;;;1.50;0.00;;;;;15.96;61.26;100999.88;4977732;28;68160;-75
2022/11/01 01:23:53;;;;;;;;;0.50;0.00;;;;;15.95;61.77;100999.97;4977756;28;67873;-75
2022/11/01 01:26:19;;;;;;;;;0.00;0.00;;;;;15.92;61.72;101013.25;4961189;28;47239;-75
2022/11/01 01:28:44;;;;;;;;;0.00;0.00;;;;;15.81;61.56;101009.34;4976920;28;45381;-76
2022/11/01 01:31:10;;;;;;;;;2.00;0.00;;;;;15.67;61.58;101017.81;4960297;28;63566;-75
2022/11/01 01:33:35;;;;;;;;;0.00;0.00;;;;;15.56;61.68;101038.41;4978492;28;45395;-75
2022/11/01 01:36:02;;;;;;;;;1.50;0.00;;;;;15.44;62.18;101031.97;4978060;28;47196;-75
2022/11/01 01:38:27;;;;;;;;;1.00;0.00;;;;;15.38;61.79;101039.25;4978395;28;45599;-76
2022/11/01 01:40:52;;;;;;;;;0.00;0.00;;;;;15.29;62.27;101037.91;4977508;28;67575;-75
2022/11/01 01:43:18;;;;;;;;;0.75;0.00;;;;;15.19;62.11;101047.06;4978148;28;45369;-76
2022/11/01 01:45:44;;;;;;;;;0.00;0.00;;;;;15.12;62.54;101043.00;4978134;28;46443;-75
2022/11/01 01:48:19;;;;;;;;;0.00;0.00;;;;;15.04;62.51;101046.84;4978371;28;45430;-75
2022/11/01 01:50:58;;;;;;;;;0.00;0.00;;;;;15.00;62.43;101066.19;4977276;28;45494;-76
2022/11/01 01:53:43;;;;;;;;;0.75;0.00;;;;;14.95;62.50;101064.69;4977022;28;45356;-75
2022/11/01 01:56:14;;;;;;;;;1.25;0.00;;;;;14.88;62.34;101072.81;4976782;28;46988;-75
2022/11/01 01:58:47;;;;;;;;;1.50;0.00;;;;;14.83;62.34;101066.91;4976587;28;45369;-75
2022/11/01 02:01:12;;;;;;;;;0.00;0.00;;;;;14.76;61.89;101069.84;4978286;28;45363;-75
2022/11/01 02:03:39;;;;;;;;;0.50;0.00;;;;;14.69;62.42;101085.84;4978094;28;45382;-75
2022/11/01 02:06:13;;;;;;;;;0.00;0.00;;;;;14.64;62.10;101085.16;4976971;28;73425;-75
2022/11/01 02:08:42;;;;;;;;;0.00;0.00;;;;;14.61;61.90;101087.06;4976813;28;45474;-75
2022/11/01 02:11:08;;;;;;;;;0.00;0.00;;;;;14.56;61.51;101094.19;4977813;28;45357;-75
2022/11/01 02:13:34;;;;;;;;;1.25;0.00;;;;;14.48;61.92;101095.34;4975789;28;45348;-75
2022/11/01 02:16:14;;;;;;;;;0.00;0.00;;;;;14.44;61.84;101092.94;4976401;28;45299;-75
2022/11/01 02:19:04;;;;;;;;;0.00;0.00;;;;;14.37;61.73;101102.78;4965547;28;45438;-75
2022/11/01 02:21:42;;;;;;;;;2.00;0.00;;;;;14.33;61.85;101107.28;4977837;28;45389;-75
2022/11/01 02:24:45;;;;;;;;;0.00;0.00;;;;;14.30;62.06;101112.66;4976460;28;45344;-75
2022/11/01 02:27:16;;;;;;;;;1.00;0.00;;;;;14.24;62.45;101110.25;4977272;28;45495;-75
2022/11/01 02:29:47;;;;;;;;;0.00;0.00;;;;;14.22;62.17;101106.84;4977672;28;45299;-75
2022/11/01 02:32:27;;;;;;;;;2.00;0.00;;;;;14.20;62.42;101113.06;4977554;28;45360;-75
2022/11/01 02:35:28;;;;;;;;;1.00;0.00;;;;;14.18;63.00;101114.88;4977271;28;45551;-75
2022/11/01 02:38:18;;;;;;;;;2.50;0.00;;;;;14.20;62.88;101126.16;4936579;28;46204;-76
2022/11/01 02:40:43;;;;;;;;;0.00;0.00;;;;;14.15;62.74;101123.69;4916783;28;45611;-75
2022/11/01 02:43:16;;;;;;;;;0.00;0.00;;;;;14.14;63.45;101128.09;4917329;28;45364;-75
2022/11/01 02:45:47;;;;;;;;;0.00;0.00;;;;;14.12;63.08;101129.06;4917186;28;45572;-75
2022/11/01 02:48:12;;;;;;;;;1.00;0.00;;;;;14.07;62.76;101123.13;4901190;28;46422;-75
2022/11/01 02:50:56;;;;;;;;;2.00;0.00;;;;;14.02;63.33;101128.56;4916093;28;73052;-74
2022/11/01 02:53:22;;;;;;;;;0.00;0.00;;;;;14.03;62.74;101145.13;4917177;28;45349;-75
2022/11/01 02:55:50;;;;;;;;;1.50;0.00;;;;;14.01;63.14;101152.16;4915517;28;70548;-75
2022/11/01 02:58:24;;;;;;;;;0.25;0.00;;;;;14.01;62.56;101150.41;4916820;28;47325;-75
2022/11/01 03:00:50;;;;;;;;;2.00;0.00;;;;;14.00;62.95;101164.38;4916936;28;45420;-75
2022/11/01 03:03:28;;;;;;;;;1.00;0.00;;;;;13.98;62.48;101166.19;4917126;28;45395;-75
2022/11/01 03:06:04;;;;;;;;;0.25;0.00;;;;;13.96;62.72;101175.03;4901042;28;45589;-75
2022/11/01 03:08:49;;;;;;;;;1.00;0.00;;;;;13.95;61.94;101174.19;4916843;28;46277;-75
2022/11/01 03:11:20;;;;;;;;;0.00;0.00;;;;;13.89;61.91;101167.41;4926284;28;45677;-75
2022/11/01 03:14:07;;;;;;;;;1.25;0.00;;;;;13.91;62.06;101178.69;4956447;28;45416;-76
2022/11/01 03:16:53;;;;;;;;;2.25;0.00;;;;;13.88;61.93;101181.38;4957450;28;45337;-75
2022/11/01 03:20:16;;;;;;;;;1.00;0.00;;;;;13.81;62.46;101172.03;4957448;28;46522;-75
2022/11/01 03:22:55;;;;;;;;;2.00;0.00;;;;;13.75;62.54;101175.72;4935676;28;45390;-75
2022/11/01 03:25:39;;;;;;;;;0.00;0.00;;;;;13.73;62.40;101179.31;4918998;28;45440;-75
2022/11/01 03:28:16;;;;;;;;;0.75;0.00;;;;;13.70;62.95;101192.50;4921071;28;45378;-76
2022/11/01 03:30:47;;;;;;;;;0.25;0.00;;;;;13.65;62.96;101187.44;4919727;28;45455;-75
2022/11/01 03:33:14;;;;;;;;;1.00;0.00;;;;;13.65;63.02;101200.53;4919610;28;45640;-75
2022/11/01 03:35:43;;;;;;;;;0.00;0.00;;;;;13.64;63.30;101211.88;4919440;28;45631;-75
2022/11/01 03:38:13;;;;;;;;;0.50;0.00;;;;;13.63;63.69;101211.94;4935367;28;45415;-75
2022/11/01 03:40:41;;;;;;;;;0.00;0.00;;;;;13.57;62.83;101215.59;4958966;28;47358;-75
2022/11/01 03:43:10;;;;;;;;;1.00;0.00;;;;;13.53;63.35;101227.94;4958247;28;45439;-76
2022/11/01 03:45:38;;;;;;;;;1.25;0.00;;;;;13.47;63.44;101219.44;4957837;28;45335;-75
2022/11/01 03:48:04;;;;;;;;;0.00;0.00;;;;;13.47;63.82;101230.75;4958130;28;45523;-75
2022/11/01 03:50:30;;;;;;;;;3.50;1.00;;;;;13.45;63.47;101229.13;4974120;28;46339;-75
2022/11/01 03:52:56;;;;;;;;;2.00;0.00;;;;;13.44;63.69;101232.63;4962812;28;45461;-75
2022/11/01 03:55:22;;;;;;;;;0.00;0.00;;;;;13.45;63.58;101242.19;4975163;28;45372;-76
2022/11/01 03:58:06;;;;;;;;;0.25;0.00;;;;;13.40;63.98;101241.47;4976515;28;45449;-75
2022/11/01 04:00:37;;;;;;;;;2.00;0.00;;;;;13.41;63.71;101240.56;4976421;28;45349;-75
2022/11/01 04:03:03;;;;;;;;;3.00;0.00;;;;;13.40;63.64;101251.94;4976463;28;45319;-75
2022/11/01 04:05:30;;;;;;;;;0.50;0.00;;;;;13.36;63.71;101261.63;4975194;28;45331;-75
2022/11/01 04:07:55;;;;;;;;;0.75;0.00;;;;;13.33;63.90;101259.09;4976121;28;45419;-75
2022/11/01 04:10:22;;;;;;;;;2.75;0.00;;;;;13.32;64.14;101268.72;4975151;28;75605;-75
2022/11/01 04:12:49;;;;;;;;;0.00;0.00;;;;;13.33;63.84;101278.28;4976330;28;45732;-75
2022/11/01 04:20:49;;;;;;;;;0.00;0.00;;;;;13.27;63.96;101294.13;4975038;28;45808;-75
2022/11/01 04:23:15;;;;;;;;;3.50;1.00;;;;;13.25;64.00;101305.53;4974478;28;45376;-76
2022/11/01 04:25:40;;;;;;;;;1.75;1.00;;;;;13.20;64.05;101304.81;4958018;28;57458;-76
2022/11/01 04:28:05;;;;;;;;;0.25;0.00;;;;;13.21;63.97;101296.94;4975313;28;61146;-75
2022/11/01 04:30:31;;;;;;;;;1.75;0.00;;;;;13.19;63.93;101317.03;4975060;28;72101;-76
2022/11/01 04:32:56;;;;;;;;;1.00;0.00;;;;;13.18;63.88;101320.53;4974967;28;73113;-75
2022/11/01 04:35:22;;;;;;;;;0.25;0.25;;;;;13.22;63.42;101322.16;4975226;28;52499;-75
2022/11/01 04:37:47;;;;;;;;;0.00;0.00;;;;;13.21;63.73;101325.69;4977204;28;45492;-76
2022/11/01 04:40:13;;;;;;;;;1.25;0.00;;;;;13.19;64.10;101335.34;4982383;28;66868;-75
2022/11/01 04:42:39;;;;;;;;;0.00;0.00;;;;;13.15;63.48;101326.72;4994419;28;45861;-75
2022/11/01 04:45:06;;;;;;;;;0.25;0.00;;;;;13.16;63.62;101333.66;4978213;28;45486;-75
2022/11/01 04:47:31;;;;;;;;;1.50;0.00;;;;;13.14;63.80;101340.69;4978083;28;45452;-75
2022/11/01 04:49:57;;;;;;;;;3.00;0.00;;;;;13.11;64.05;101359.09;4978127;28;75397;-75
2022/11/01 04:52:22;;;;;;;;;1.50;0.00;;;;;13.10;63.98;101343.44;4977875;28;73235;-75
2022/11/01 04:54:47;;;;;;;;;6.25;0.00;;;;;13.06;63.72;101340.06;4979127;28;45225;-75
2022/11/01 04:57:21;;;;;;;;;0.25;0.00;;;;;13.05;63.83;101347.94;4976976;28;69528;-75
2022/11/01 04:59:54;;;;;;;;;1.00;0.00;;;;;13.06;64.27;101355.75;4978961;28;45506;-75
2022/11/01 05:02:21;;;;;;;;;3.50;0.00;;;;;13.08;64.64;101361.78;4977754;28;45462;-75
2022/11/01 05:04:46;;;;;;;;;0.00;0.00;;;;;13.05;64.50;101359.25;4977855;28;45699;-75
2022/11/01 05:07:12;;;;;;;;;1.00;0.00;;;;;13.05;64.04;101364.47;4977566;28;45262;-75
2022/11/01 05:09:38;;;;;;;;;0.75;0.00;;;;;13.02;64.44;101377.66;4977462;28;46128;-75
2022/11/01 05:12:03;;;;;;;;;0.50;0.00;;;;;13.02;64.31;101377.66;4977863;28;72441;-75
2022/11/01 05:14:28;;;;;;;;;1.00;0.00;;;;;13.01;64.34;101377.69;4977610;28;45310;-75
2022/11/01 05:16:54;;;;;;;;;2.75;0.00;;;;;13.00;64.57;101376.84;4977853;28;68372;-75
2022/11/01 05:19:20;;;;;;;;;3.25;0.00;;;;;13.03;64.59;101376.75;4978634;28;46297;-75
2022/11/01 05:21:45;;;;;;;;;2.50;0.00;;;;;13.03;64.59;101376.75;4978310;28;45393;-75
2022/11/01 05:24:11;;;;;;;;;4.75;0.25;;;;;13.01;64.93;101381.16;4977831;28;63708;-75
2022/11/01 05:26:36;;;;;;;;;1.50;0.00;;;;;12.99;64.86;101380.34;4976443;28;69886;-75
2022/11/01 05:29:01;;;;;;;;;9.00;1.00;;;;;12.98;64.89;101387.34;4977521;28;71861;-75
2022/11/01 05:31:26;;;;;;;;;2.00;0.00;;;;;12.95;64.90;101399.63;4977724;28;68483;-76
2022/11/01 05:33:52;;;;;;;;;3.00;0.00;;;;;12.91;65.41;101393.63;4977515;28;68143;-75
2022/11/01 05:36:17;;;;;;;;;3.00;0.00;;;;;12.90;65.02;101391.91;4977111;28;64364;-75
2022/11/01 05:38:42;;;;;;;;;1.25;0.00;;;;;12.88;65.28;101405.94;4978280;28;46056;-76
2022/11/01 05:41:08;;;;;;;;;1.00;0.00;;;;;12.84;65.62;101404.31;4977324;28;72081;-75
2022/11/01 05:43:33;;;;;;;;;1.50;0.25;;;;;12.84;65.57;101412.16;4978507;28;45453;-75
2022/11/01 05:46:03;;;;;;;;;0.00;0.00;;;;;12.82;65.71;101400.88;4977412;28;69655;-75
2022/11/01 05:48:28;;;;;;;;;0.00;0.00;;;;;12.83;65.76;101413.03;4992888;28;47432;-75
2022/11/01 05:50:53;;;;;;;;;0.00;0.00;;;;;12.81;66.28;101415.69;4977327;28;73147;-75
2022/11/01 05:53:19;;;;;;;;;0.00;0.00;;;;;12.77;66.35;101406.22;4978333;28;45419;-75
2022/11/01 05:55:44;;;;;;;;;1.25;0.00;;;;;12.74;66.14;101411.50;4977170;28;45558;-76
2022/11/01 05:58:09;;;;;;;;;1.00;0.00;;;;;12.71;66.40;101407.25;4975898;28;72586;-76
2022/11/01 06:00:35;;;;;;;;;8.00;0.00;;;;;12.69;66.50;101416.88;4977259;28;71904;-76
2022/11/01 06:03:00;;;;;;;;;1.00;0.00;;;;;12.69;66.80;101419.50;4976659;28;45411;-75
2022/11/01 06:05:26;;;;;;;;;1.00;0.25;;;;;12.66;66.54;101426.56;4978170;28;45430;-75
2022/11/01 06:07:51;;;;;;;;;0.00;0.00;;;;;12.65;66.91;101428.31;4976670;28;47031;-75
2022/11/01 06:10:17;;;;;;;;;2.00;1.00;;;;;12.65;66.96;101432.66;4976703;28;45595;-75
2022/11/01 06:12:42;;;;;;;;;1.50;0.00;;;;;12.63;66.75;101424.00;4978107;28;45419;-75
2022/11/01 06:15:08;;;;;;;;;2.75;1.00;;;;;12.62;66.62;101428.38;4976980;28;67506;-76
2022/11/01 06:17:33;;;;;;;;;1.00;1.00;;;;;12.59;66.97;101423.22;4977112;28;47513;-75
2022/11/01 06:19:59;;;;;;;;;1.00;1.00;;;;;12.56;66.78;101424.19;4975632;28;69361;-75
2022/11/01 06:22:24;;;;;;;;;2.75;0.00;;;;;12.55;67.31;101430.28;4977778;28;45284;-75
2022/11/01 06:24:49;;;;;;;;;2.00;0.50;;;;;12.54;67.39;101438.19;4977311;28;52725;-75
2022/11/01 06:27:15;;;;;;;;;0.00;0.00;;;;;12.53;67.53;101426.00;4976954;28;67904;-76
2022/11/01 06:29:40;;;;;;;;;6.00;1.00;;;;;12.53;67.41;101436.47;4977624;28;45352;-75
2022/11/01 06:32:06;;;;;;;;;0.50;0.00;;;;;12.50;67.63;101436.53;4977400;28;45321;-75
2022/11/01 06:34:31;;;;;;;;;0.50;0.25;;;;;12.54;67.06;101444.25;4991956;28;70864;-75
2022/11/01 06:36:57;;;;;;;;;1.75;1.00;;;;;12.57;67.52;101449.41;4992385;28;45471;-76
2022/11/01 06:39:22;;;;;;;;;1.50;0.00;;;;;12.59;67.22;101454.56;4977197;28;45619;-75
2022/11/01 06:41:47;;;;;;;;;2.25;0.00;;;;;12.59;67.09;101459.78;4977099;28;57360;-75
2022/11/01 06:44:13;;;;;;;;;0.25;0.00;;;;;12.55;67.48;101466.84;4959654;28;60120;-76
2022/11/01 06:46:38;;;;;;;;;2.00;1.00;;;;;12.61;67.30;101460.66;4959624;28;46249;-76
2022/11/01 06:49:04;;;;;;;;;2.75;0.00;;;;;12.64;67.49;101457.94;4977674;28;45226;-77
2022/11/01 06:51:29;;;;;;;;;0.00;0.00;;;;;12.59;67.19;101455.44;4977598;28;45233;-76
2022/11/01 06:53:54;;;;;;;;;1.00;1.00;;;;;12.68;67.22;101456.94;4976722;28;68478;-76
2022/11/01 06:56:20;;;;;;;;;2.50;0.00;;;;;12.70;66.83;101464.75;4977200;28;45349;-76
2022/11/01 06:58:52;;;;;;;;;1.25;0.00;;;;;12.70;67.01;101468.25;4959166;28;45519;-76
2022/11/01 07:01:21;;;;;;;;;0.50;0.00;;;;;12.73;66.77;101477.75;4976408;28;45431;-76
2022/11/01 07:03:55;;;;;;;;;0.00;0.00;;;;;12.76;66.66;101482.91;4960307;28;45487;-76
2022/11/01 07:06:23;;;;;;;;;3.00;0.00;;;;;12.71;66.92;101482.16;4977190;28;45488;-77
2022/11/01 07:08:51;;;;;;;;;0.25;0.25;;;;;12.69;67.19;101479.56;4977137;28;45308;-76
2022/11/01 07:11:16;;;;;;;;;0.25;0.00;;;;;12.69;66.92;101481.34;4977159;28;45469;-76
2022/11/01 07:13:42;;;;;;;;;1.25;0.75;;;;;12.71;66.80;101492.59;4977222;28;45484;-76
2022/11/01 07:16:07;;;;;;;;;2.00;0.00;;;;;12.72;67.23;101478.63;4976388;28;45383;-76
2022/11/01 07:18:33;;;;;;;;;1.75;1.00;;;;;12.77;67.30;101495.03;4976721;28;45310;-76
2022/11/01 07:21:02;;;;;;;;;1.50;0.00;;;;;12.77;67.24;101489.81;4977026;28;45424;-76
2022/11/01 07:23:28;;;;;;;;;1.75;0.00;;;;;12.84;67.55;101496.59;4976849;28;45340;-76
2022/11/01 07:25:54;;;;;;;;;3.00;0.25;;;;;12.86;66.88;101496.56;4976651;28;46186;-75
2022/11/01 07:28:19;;;;;;;;;4.75;1.00;;;;;12.89;66.73;101505.19;4975499;28;45397;-76
2022/11/01 07:30:52;;;;;;;;;2.50;0.50;;;;;12.90;66.82;101499.03;4976596;28;45407;-76
2022/11/01 07:33:17;;;;;;;;;2.50;0.00;;;;;12.90;66.90;101506.88;4975578;28;45451;-75
2022/11/01 07:35:43;;;;;;;;;1.75;0.00;;;;;12.93;66.93;101509.44;4958787;28;46198;-75
2022/11/01 07:38:09;;;;;;;;;1.00;0.00;;;;;12.94;67.05;101520.72;4959108;28;45464;-76
2022/11/01 07:40:35;;;;;;;;;2.00;0.00;;;;;12.94;66.76;101511.13;4977357;28;45561;-75
2022/11/01 07:43:00;;;;;;;;;2.25;1.00;;;;;12.98;67.14;101518.00;4964135;28;45531;-76
2022/11/01 07:45:28;;;;;;;;;2.50;0.25;;;;;13.04;66.80;101516.09;4978389;28;45883;-76
2022/11/01 07:47:58;;;;;;;;;7.25;0.00;;;;;13.07;66.83;101522.09;4975158;28;45606;-75
2022/11/01 07:50:24;;;;;;;;;1.00;0.00;;;;;13.07;67.11;101529.09;4958539;28;45518;-75
2022/11/01 07:52:59;;;;;;;;;1.25;0.00;;;;;13.12;66.91;101530.69;4971887;28;45622;-76
2022/11/01 07:55:24;;;;;;;;;0.75;0.75;;;;;13.15;66.69;101532.38;4975813;28;45403;-75
2022/11/01 07:57:49;;;;;;;;;1.00;0.00;;;;;13.23;66.77;101529.56;4975460;28;70651;-75
2022/11/01 08:00:15;;;;;;;;;5.75;0.00;;;;;13.27;66.73;101531.19;4973810;28;67661;-75
2022/11/01 08:02:40;;;;;;;;;0.00;0.00;;;;;13.29;66.52;101535.47;4976476;28;45380;-75
2022/11/01 08:05:08;;;;;;;;;1.00;1.00;;;;;13.28;66.54;101536.38;4974902;28;76068;-75
2022/11/01 08:07:39;;;;;;;;;1.00;1.00;;;;;13.32;66.28;101545.88;4959151;28;45393;-75
2022/11/01 08:10:09;;;;;;;;;3.50;0.00;;;;;13.35;66.00;101548.41;4976053;28;45305;-76
2022/11/01 08:12:35;;;;;;;;;0.25;0.00;;;;;13.34;65.95;101548.44;4993552;28;45281;-76
2022/11/01 08:15:01;;;;;;;;;2.75;1.50;;;;;13.40;66.30;101557.88;4979157;28;47285;-75
2022/11/01 08:17:27;;;;;;;;;2.75;0.25;;;;;13.42;65.86;101548.22;4978135;28;45394;-77
2022/11/01 08:19:52;;;;;;;;;1.00;0.00;;;;;13.47;66.20;101543.75;4979433;28;45340;-77
2022/11/01 08:22:18;;;;;;;;;4.50;1.50;;;;;13.54;65.98;101555.75;4978987;28;45499;-76
2022/11/01 08:24:44;;;;;;;;;3.00;0.00;;;;;13.59;65.59;101556.44;4978142;28;75698;-77
2022/11/01 08:27:09;;;;;;;;;1.75;1.50;;;;;13.64;65.41;101553.72;4978237;28;73152;-77
2022/11/01 08:29:34;;;;;;;;;4.00;1.00;;;;;13.71;65.21;101553.50;4978862;28;46554;-76
2022/11/01 08:32:00;;;;;;;;;0.75;0.75;;;;;13.78;64.91;101548.06;4979344;28;45442;-78
2022/11/01 08:34:25;;;;;;;;;3.00;1.00;;;;;13.84;65.51;101548.75;4961501;28;54270;-78
2022/11/01 08:36:50;;;;;;;;;3.25;1.00;;;;;13.92;64.94;101553.75;4977810;28;68512;-77
2022/11/01 08:39:15;;;;;;;;;4.00;0.75;;;;;13.91;64.49;101546.81;4978436;28;67057;-79
2022/11/01 08:41:41;;;;;;;;;1.25;0.75;;;;;13.91;64.43;101558.16;4978868;28;55174;-78
2022/11/01 08:44:06;;;;;;;;;4.00;0.00;;;;;13.93;64.73;101545.03;4977372;28;73722;-76
2022/11/01 08:46:32;;;;;;;;;3.75;0.00;;;;;13.96;64.75;101538.81;4979193;28;45444;-76
2022/11/01 08:48:59;;;;;;;;;2.00;1.00;;;;;13.98;64.40;101524.78;4979188;28;45399;-75
2022/11/01 08:51:26;;;;;;;;;0.50;0.50;;;;;14.05;64.28;101526.31;4955609;28;45452;-76
2022/11/01 08:53:55;;;;;;;;;0.50;0.50;;;;;14.13;64.35;101532.19;4959660;28;45638;-76
2022/11/01 08:56:24;;;;;;;;;0.50;0.50;;;;;14.16;63.56;101533.00;4957809;28;45480;-76
2022/11/01 08:58:50;;;;;;;;;0.75;0.00;;;;;14.23;63.98;101537.13;4972785;28;45337;-77
2022/11/01 09:01:16;;;;;;;;;1.25;0.00;;;;;14.26;63.35;101540.50;4978884;28;45463;-76
2022/11/01 09:03:41;;;;;;;;;1.00;1.00;;;;;14.30;63.50;101530.75;4978913;28;46462;-77
2022/11/01 09:06:06;;;;;;;;;0.00;0.00;;;;;14.31;62.69;101535.13;4960281;28;69542;-77
2022/11/01 09:08:32;;;;;;;;;3.25;1.00;;;;;14.35;63.03;101525.41;4960455;28;62515;-76
2022/11/01 09:10:57;;;;;;;;;1.00;1.00;;;;;14.42;62.58;101537.41;4961817;28;56482;-76
2022/11/01 09:13:23;;;;;;;;;1.75;0.00;;;;;14.42;62.38;101540.00;4977877;28;45630;-77
2022/11/01 09:15:48;;;;;;;;;1.00;0.00;;;;;14.43;62.31;101539.97;4992609;28;73255;-77
2022/11/01 09:18:13;;;;;;;;;3.00;0.00;;;;;14.42;62.52;101529.53;4966187;28;53280;-78
2022/11/01 09:20:39;;;;;;;;;1.75;0.00;;;;;14.47;62.36;101538.97;4957229;28;64918;-78
2022/11/01 09:23:04;;;;;;;;;2.25;1.00;;;;;14.50;62.04;101541.50;4957578;28;69078;-78
2022/11/01 09:25:29;;;;;;;;;1.00;0.00;;;;;14.51;61.97;101539.72;4958113;28;73080;-78
2022/11/01 09:27:56;;;;;;;;;2.25;1.75;;;;;14.52;62.32;101542.28;4958794;28;45416;-77
2022/11/01 09:30:22;;;;;;;;;4.75;1.25;;;;;14.58;62.12;101546.50;4959130;28;45349;-77
2022/11/01 09:32:47;;;;;;;;;0.75;0.75;;;;;14.64;62.15;101543.69;4957552;28;47262;-77
2022/11/01 09:35:13;;;;;;;;;4.00;0.00;;;;;14.67;61.85;101537.47;4958013;28;60648;-77
2022/11/01 09:37:38;;;;;;;;;2.50;0.00;;;;;14.74;62.28;101548.63;4959175;28;45607;-78
2022/11/01 09:40:04;;;;;;;;;3.50;0.00;;;;;14.81;61.85;101548.34;4965972;28;45253;-78
2022/11/01 09:42:34;;;;;;;;;2.75;0.00;;;;;14.86;61.61;101559.53;4977930;28;46566;-78
2022/11/01 09:45:04;;;;;;;;;2.00;0.00;;;;;14.90;61.74;101566.38;4976756;28;45362;-77
2022/11/01 09:47:32;;;;;;;;;0.50;0.00;;;;;14.99;61.75;101560.00;4977197;28;45355;-78
2022/11/01 09:50:18;;;;;;;;;1.00;0.00;;;;;15.10;61.64;101564.88;4977192;28;45421;-77
2022/11/01 09:52:43;;;;;;;;;4.25;0.00;;;;;15.14;61.40;101576.97;4974010;28;45386;-78
2022/11/01 09:55:14;;;;;;;;;0.75;0.75;;;;;15.21;60.93;101580.19;4975635;28;69720;-78
2022/11/01 09:57:56;;;;;;;;;2.75;0.50;;;;;15.28;60.85;101561.59;4958843;28;45424;-77
2022/11/01 10:00:22;;;;;;;;;1.00;1.00;;;;;15.36;60.70;101569.19;4968125;28;45342;-77
2022/11/01 10:03:04;;;;;;;;;3.00;0.00;;;;;15.43;60.51;101581.19;4944145;28;46197;-78
2022/11/01 10:05:42;;;;;;;;;5.25;1.00;;;;;15.49;60.19;101574.84;4976698;28;45681;-77
2022/11/01 10:08:28;;;;;;;;;2.75;0.00;;;;;15.53;60.08;101583.47;4978302;28;45566;-77
2022/11/01 10:11:40;;;;;;;;;1.50;0.25;;;;;15.56;59.78;101575.47;4977748;28;45577;-77
2022/11/01 10:14:15;;;;;;;;;0.25;0.00;;;;;15.63;59.83;101569.94;4977832;28;46583;-77
2022/11/01 10:16:50;;;;;;;;;1.50;0.25;;;;;15.72;59.64;101570.53;4977804;28;45756;-78
2022/11/01 10:19:18;;;;;;;;;2.75;0.75;;;;;15.81;59.10;101575.47;4976808;28;45443;-78
2022/11/01 10:21:52;;;;;;;;;1.50;0.00;;;;;15.92;59.76;101581.16;4976666;28;45528;-77
2022/11/01 10:24:25;;;;;;;;;0.75;0.00;;;;;16.01;59.30;101579.94;4977198;28;47585;-78
2022/11/01 10:26:58;;;;;;;;;0.00;0.00;;;;;16.11;58.95;101580.47;4976431;28;45715;-76
2022/11/01 10:29:45;;;;;;;;;2.25;1.00;;;;;16.25;57.98;101586.91;4976561;28;45424;-78
2022/11/01 10:32:32;;;;;;;;;2.25;0.50;;;;;16.36;58.26;101577.72;4960102;28;45494;-78
2022/11/01 10:35:03;;;;;;;;;3.75;1.00;;;;;16.44;57.36;101584.38;4974889;28;46827;-77
2022/11/01 10:37:37;;;;;;;;;2.00;0.00;;;;;16.55;57.21;101583.13;4976211;28;45419;-77
2022/11/01 10:40:12;;;;;;;;;1.75;0.00;;;;;16.69;56.95;101580.75;4975927;28;45388;-77
2022/11/01 10:42:37;;;;;;;;;2.25;0.25;;;;;16.80;56.34;101575.91;4976358;28;45610;-78
2022/11/01 10:45:06;;;;;;;;;0.00;0.00;;;;;16.93;56.46;101571.03;4976368;28;71858;-77
2022/11/01 10:47:34;;;;;;;;;3.25;1.00;;;;;17.10;56.50;101578.19;4977236;28;45423;-77
2022/11/01 10:50:03;;;;;;;;;2.75;0.50;;;;;17.33;55.69;101577.22;4976240;28;45307;-77
2022/11/01 10:52:34;;;;;;;;;3.75;0.00;;;;;17.52;54.81;101565.88;4976191;28;45646;-78
2022/11/01 10:55:01;;;;;;;;;4.00;1.00;;;;;17.73;53.95;101572.78;4975580;28;46303;-77
2022/11/01 10:57:40;;;;;;;;;2.00;1.50;;;;;17.93;53.69;101565.78;4977165;28;45748;-77
2022/11/01 11:00:14;;;;;;;;;0.75;0.75;;;;;18.40;53.71;101572.34;4975998;28;45390;-77
2022/11/01 11:02:43;;;;;;;;;1.75;0.00;;;;;19.66;51.24;101563.28;4976098;28;45341;-77
2022/11/01 11:05:13;;;;;;;;;5.00;0.50;;;;;21.00;48.08;101572.47;4975702;28;46051;-79
2022/11/01 11:07:38;;;;;;;;;2.00;0.50;;;;;22.11;45.11;101563.00;4975433;28;45803;-79
2022/11/01 11:10:15;;;;;;;;;2.75;0.00;;;;;23.17;46.41;101566.59;4976031;28;67293;-78
2022/11/01 11:12:41;;;;;;;;;5.50;1.00;;;;;24.07;41.86;101573.59;4977003;28;45723;-78
2022/11/01 11:15:16;;;;;;;;;4.00;0.00;;;;;24.69;40.49;101572.63;4959542;28;46383;-76
2022/11/01 11:17:44;;;;;;;;;2.00;0.00;;;;;25.15;41.27;101569.09;4975713;28;45511;-76
2022/11/01 11:20:10;;;;;;;;;1.50;1.00;;;;;25.59;37.06;101577.25;4976859;28;45239;-76
2022/11/01 11:22:39;;;;;;;;;0.00;0.00;;;;;25.55;37.39;101573.97;4959331;28;45452;-76
2022/11/01 11:25:06;;;;;;;;;1.00;1.00;;;;;25.04;37.38;101566.41;4959305;28;47204;-76
2022/11/01 11:27:33;;;;;;;;;2.00;0.00;;;;;24.10;38.30;101562.75;4959231;28;46516;-76
2022/11/01 11:30:06;;;;;;;;;2.00;1.00;;;;;23.19;39.61;101558.53;4976906;28;45615;-76
2022/11/01 11:32:37;;;;;;;;;3.00;1.00;;;;;22.48;40.49;101567.75;4976696;28;45392;-76
2022/11/01 11:35:15;;;;;;;;;3.00;1.00;;;;;21.83;42.01;101566.59;4975059;28;47227;-76
2022/11/01 11:38:02;;;;;;;;;1.75;0.75;;;;;22.94;43.02;101552.25;4958723;28;45627;-76